Time;durP1;ratioP1;P1;durP2;ratioP2;P2;SDS_P1;SDS_P2;PMS_P1;PMS_P2;Temp;Humidity;BMP_temperature;BMP_pressure;BME280_temperature;BME280_humidity;BME280_pressure;Samples;Min_cycle;Max_cycle;Signal;HPM_P1;HPM_P2
2023/07/27 00:01:42;;;;;;;;;;;13.80;1.00;;;;;;5265230;23;20075;-86
2023/07/27 00:04:18;;;;;;;1.85;1.48;;;13.80;1.00;;;;;;5225795;28;19901;-86
2023/07/27 00:06:52;;;;;;;1.63;1.40;;;13.90;1.00;;;;;;5226207;28;20031;-87
2023/07/27 00:09:26;;;;;;;1.60;1.50;;;13.90;1.00;;;;;;5227201;28;20028;-85
2023/07/27 00:11:57;;;;;;;1.38;1.27;;;13.90;1.00;;;;;;5225569;28;20035;-86
2023/07/27 00:14:29;;;;;;;1.45;1.35;;;14.00;1.00;;;;;;5225418;28;20036;-87
2023/07/27 00:17:00;;;;;;;1.98;1.70;;;14.00;1.00;;;;;;5225961;28;20029;-86
2023/07/27 00:19:36;;;;;;;1.50;1.40;;;13.90;1.00;;;;;;5226245;28;20323;-87
2023/07/27 00:22:13;;;;;;;1.38;1.27;;;14.00;1.00;;;;;;5226270;28;20032;-87
2023/07/27 00:24:48;;;;;;;1.48;1.38;;;13.90;1.00;;;;;;5242042;28;20029;-87
2023/07/27 00:27:19;;;;;;;1.40;1.30;;;13.90;1.00;;;;;;5231772;28;20035;-87
2023/07/27 00:29:56;;;;;;;1.50;1.40;;;13.90;1.00;;;;;;5236068;28;20028;-86
2023/07/27 00:32:33;;;;;;;1.58;1.42;;;13.90;1.00;;;;;;5239769;28;20035;-87
2023/07/27 00:35:08;;;;;;;1.83;1.63;;;13.90;1.00;;;;;;5240080;28;20020;-87
2023/07/27 00:37:41;;;;;;;1.30;1.20;;;13.90;1.00;;;;;;5243513;28;20033;-85
2023/07/27 00:40:13;;;;;;;1.05;1.00;;;13.90;1.00;;;;;;5259585;28;20036;-86
2023/07/27 00:42:45;;;;;;;1.85;1.75;;;13.90;1.00;;;;;;5238675;28;20205;-86
2023/07/27 00:45:16;;;;;;;1.35;1.25;;;13.90;1.00;;;;;;5234616;28;20038;-87
2023/07/27 00:47:48;;;;;;;1.73;1.63;;;13.90;1.00;;;;;;5235330;28;20038;-86
2023/07/27 00:50:19;;;;;;;1.40;1.30;;;13.80;1.00;;;;;;5235171;28;20051;-86
2023/07/27 00:52:51;;;;;;;2.58;1.30;;;13.70;67.60;;;;;;5234829;28;20034;-86
2023/07/27 00:55:29;;;;;;;2.67;1.40;;;13.70;99.90;;;;;;5235865;28;20037;-87
2023/07/27 00:58:02;;;;;;;1.10;1.10;;;13.70;99.90;;;;;;5254232;28;20043;-87
2023/07/27 01:00:34;;;;;;;1.67;1.30;;;13.70;99.90;;;;;;5239654;28;20041;-87
2023/07/27 01:03:06;;;;;;;1.48;1.42;;;13.70;99.90;;;;;;5233516;28;20337;-86
2023/07/27 01:05:38;;;;;;;1.85;1.55;;;13.80;99.90;;;;;;5230041;28;20033;-87
2023/07/27 01:08:12;;;;;;;1.27;1.15;;;13.70;99.90;;;;;;5229933;28;20028;-86
2023/07/27 01:10:51;;;;;;;1.83;1.63;;;13.70;99.90;;;;;;5230011;28;20218;-87
2023/07/27 01:13:43;;;;;;;1.70;1.60;;;13.80;91.80;;;;;;5230096;28;20028;-87
2023/07/27 01:16:22;;;;;;;2.58;1.27;;;13.70;43.70;;;;;;5228711;28;20028;-85
2023/07/27 01:19:09;;;;;;;1.35;1.25;;;13.80;1.00;;;;;;5228258;28;20028;-87
2023/07/27 01:21:49;;;;;;;1.08;0.98;;;13.80;1.00;;;;;;5228170;28;20038;-86
2023/07/27 01:24:39;;;;;;;1.50;1.40;;;13.80;1.00;;;;;;5227820;28;20034;-87
2023/07/27 01:27:47;;;;;;;1.10;1.00;;;13.80;1.00;;;;;;5244895;28;20314;-86
2023/07/27 01:30:18;;;;;;;1.60;1.08;;;13.90;1.00;;;;;;5228377;28;20034;-86
2023/07/27 01:33:05;;;;;;;1.40;1.20;;;13.90;1.00;;;;;;5243878;28;20033;-87
2023/07/27 01:35:44;;;;;;;2.75;1.30;;;14.00;1.00;;;;;;5228110;28;20054;-87
2023/07/27 01:38:21;;;;;;;1.40;1.30;;;14.00;1.00;;;;;;5243747;28;20323;-86
2023/07/27 01:40:56;;;;;;;1.60;1.50;;;14.00;1.00;;;;;;5225724;28;20365;-86
2023/07/27 01:43:38;;;;;;;1.40;1.30;;;14.00;1.00;;;;;;5224371;28;20120;-86
2023/07/27 01:46:13;;;;;;;2.83;1.30;;;14.00;1.00;;;;;;5223254;28;20029;-86
2023/07/27 01:48:53;;;;;;;1.58;1.48;;;14.00;1.00;;;;;;5224005;28;20108;-86
2023/07/27 01:54:58;;;;;;;1.50;1.30;;;14.00;99.90;;;;;;5224651;28;20021;-87
2023/07/27 01:57:34;;;;;;;1.90;1.58;;;14.00;99.90;;;;;;5223881;28;20029;-87
2023/07/27 02:00:06;;;;;;;1.63;1.42;;;14.00;99.90;;;;;;5224425;28;20029;-87
2023/07/27 02:02:58;;;;;;;1.80;1.42;;;14.00;99.90;;;;;;5247062;28;20056;-86
2023/07/27 02:05:45;;;;;;;1.40;1.30;;;14.00;99.90;;;;;;5239826;28;20063;-86
2023/07/27 02:08:17;;;;;;;1.52;1.42;;;14.00;99.90;;;;;;5206817;28;20078;-86
2023/07/27 02:10:55;;;;;;;1.40;1.30;;;14.00;99.90;;;;;;5208272;28;20331;-86
2023/07/27 02:14:06;;;;;;;1.90;1.00;;;14.00;99.90;;;;;;5227301;28;20043;-86
2023/07/27 02:20:11;;;;;;;2.25;1.48;;;13.90;99.90;;;;;;5244019;28;20038;-87
2023/07/27 02:22:49;;;;;;;1.27;1.17;;;13.90;99.90;;;;;;5244809;28;20031;-87
2023/07/27 02:25:21;;;;;;;1.60;1.40;;;13.90;99.90;;;;;;5228305;28;20028;-87
2023/07/27 02:27:59;;;;;;;3.13;1.40;;;13.80;99.90;;;;;;5228783;28;20024;-86
2023/07/27 02:30:32;;;;;;;1.40;1.30;;;13.80;99.90;;;;;;5228750;28;20046;-85
2023/07/27 02:33:05;;;;;;;1.73;1.40;;;13.90;99.90;;;;;;5227130;28;20034;-86
2023/07/27 02:35:37;;;;;;;2.13;1.45;;;13.90;99.90;;;;;;5242244;28;20039;-85
2023/07/27 02:38:08;;;;;;;1.13;1.10;;;13.90;99.90;;;;;;5225158;28;20039;-82
2023/07/27 02:40:39;;;;;;;1.60;1.50;;;13.90;99.90;;;;;;5224968;28;20034;-84
2023/07/27 02:43:13;;;;;;;3.08;1.33;;;13.90;99.90;;;;;;5224544;28;20348;-84
2023/07/27 02:45:46;;;;;;;1.30;1.20;;;13.90;99.90;;;;;;5224274;28;20028;-84
2023/07/27 02:48:17;;;;;;;1.55;1.45;;;13.90;99.90;;;;;;5224234;28;20035;-85
2023/07/27 02:50:50;;;;;;;1.95;1.20;;;13.90;99.90;;;;;;5226103;28;20233;-84
2023/07/27 02:53:23;;;;;;;1.83;1.73;;;13.90;99.90;;;;;;5226025;28;20036;-85
2023/07/27 02:56:00;;;;;;;1.63;1.52;;;13.90;99.90;;;;;;5242147;28;20035;-84
2023/07/27 02:58:34;;;;;;;1.60;1.50;;;13.90;99.90;;;;;;5225734;28;20218;-83
2023/07/27 03:01:05;;;;;;;1.60;1.50;;;13.90;99.90;;;;;;5224585;28;20050;-84
2023/07/27 03:03:40;;;;;;;3.80;1.27;;;13.80;99.90;;;;;;5224850;28;20020;-86
2023/07/27 03:06:38;;;;;;;1.23;1.08;;;13.80;99.90;;;;;;5225526;28;20037;-84
2023/07/27 03:09:09;;;;;;;1.95;1.30;;;13.70;1.00;;;;;;5225420;28;20066;-84
2023/07/27 03:11:41;;;;;;;1.27;1.10;;;13.70;1.00;;;;;;5224486;28;20332;-85
2023/07/27 03:14:14;;;;;;;2.22;1.48;;;13.70;1.00;;;;;;5224954;28;20033;-85
2023/07/27 03:16:45;;;;;;;1.13;0.90;;;13.60;1.00;;;;;;5224506;28;20028;-84
2023/07/27 03:19:19;;;;;;;1.58;1.38;;;13.60;1.00;;;;;;5224453;28;20024;-84
2023/07/27 03:21:53;;;;;;;1.20;1.10;;;13.60;1.00;;;;;;5224763;28;20341;-85
2023/07/27 03:24:24;;;;;;;1.13;1.02;;;13.60;1.00;;;;;;5227634;28;20027;-84
2023/07/27 03:26:56;;;;;;;1.35;1.25;;;13.60;1.00;;;;;;5227199;28;20218;-85
2023/07/27 03:29:29;;;;;;;2.25;1.35;;;13.60;1.00;;;;;;5225381;28;20028;-85
2023/07/27 03:32:03;;;;;;;2.30;1.48;;;13.60;1.00;;;;;;5241042;28;20028;-86
2023/07/27 03:34:40;;;;;;;2.23;1.77;;;13.70;1.00;;;;;;5224852;28;20024;-84
2023/07/27 03:37:14;;;;;;;1.40;1.30;;;13.70;1.00;;;;;;5224741;28;20033;-83
2023/07/27 03:39:47;;;;;;;2.58;1.80;;;13.70;1.00;;;;;;5224736;28;20024;-84
2023/07/27 03:42:19;;;;;;;2.22;1.30;;;13.70;1.00;;;;;;5224199;28;20020;-86
2023/07/27 03:44:51;;;;;;;1.88;1.38;;;13.70;1.00;;;;;;5224762;28;20035;-84
2023/07/27 03:47:28;;;;;;;1.63;1.30;;;13.70;1.00;;;;;;5224241;28;20035;-85
2023/07/27 03:50:02;;;;;;;2.25;1.55;;;13.80;1.00;;;;;;5224795;28;20029;-84
2023/07/27 03:52:34;;;;;;;2.00;1.48;;;13.80;1.00;;;;;;5223693;28;20043;-84
2023/07/27 03:55:05;;;;;;;2.08;1.92;;;13.90;1.00;;;;;;5224110;28;20028;-83
2023/07/27 03:57:39;;;;;;;1.95;1.33;;;14.00;99.90;;;;;;5223743;28;20039;-85
2023/07/27 04:00:14;;;;;;;1.58;1.48;;;14.00;99.90;;;;;;5223305;28;20050;-84
2023/07/27 04:02:45;;;;;;;1.42;1.30;;;14.10;99.90;;;;;;5227760;28;20250;-84
2023/07/27 04:05:20;;;;;;;1.52;1.30;;;14.20;99.90;;;;;;5227418;28;20032;-84
2023/07/27 04:07:56;;;;;;;1.92;1.48;;;14.20;99.90;;;;;;5243842;28;20025;-85
2023/07/27 04:10:29;;;;;;;3.33;1.70;;;14.20;99.90;;;;;;5226947;28;20218;-83
2023/07/27 04:13:02;;;;;;;1.52;1.33;;;14.30;1.00;;;;;;5226580;28;20042;-85
2023/07/27 04:15:37;;;;;;;4.65;1.48;;;14.30;1.00;;;;;;5226048;28;20307;-86
2023/07/27 04:18:09;;;;;;;1.77;1.40;;;14.40;1.00;;;;;;5226003;28;20032;-84
2023/07/27 04:20:43;;;;;;;1.70;1.40;;;14.50;1.00;;;;;;5226557;28;20036;-84
2023/07/27 04:23:14;;;;;;;1.98;1.50;;;14.50;1.00;;;;;;5227407;28;20054;-84
2023/07/27 04:25:48;;;;;;;1.50;1.40;;;14.70;1.00;;;;;;5227012;28;20021;-86
2023/07/27 04:28:24;;;;;;;1.63;1.45;;;14.70;1.00;;;;;;5226175;28;20032;-85
2023/07/27 04:30:56;;;;;;;1.83;1.50;;;14.70;1.00;;;;;;5227027;28;20021;-83
2023/07/27 04:33:27;;;;;;;1.30;1.20;;;14.80;1.00;;;;;;5207955;28;20029;-84
2023/07/27 04:36:05;;;;;;;2.70;2.22;;;14.90;1.00;;;;;;5206148;28;20029;-84
2023/07/27 04:38:39;;;;;;;1.65;1.48;;;14.90;1.00;;;;;;5205915;28;20028;-83
2023/07/27 04:41:13;;;;;;;2.47;1.27;;;15.00;1.00;;;;;;5206081;28;20036;-85
2023/07/27 04:43:47;;;;;;;1.33;1.20;;;15.10;99.90;;;;;;5223097;28;20031;-84
2023/07/27 04:46:21;;;;;;;1.50;1.23;;;15.40;99.90;;;;;;5206767;28;20323;-83
2023/07/27 04:48:52;;;;;;;1.88;1.15;;;15.40;99.90;;;;;;5207011;28;20035;-84
2023/07/27 04:51:31;;;;;;;1.77;1.50;;;15.60;99.90;;;;;;5206506;28;20107;-84
2023/07/27 04:54:05;;;;;;;3.17;1.38;;;15.60;20.50;;;;;;5207331;28;20035;-84
2023/07/27 04:56:39;;;;;;;1.90;1.80;;;15.60;1.00;;;;;;5207196;28;20039;-83
2023/07/27 04:59:12;;;;;;;1.50;1.40;;;15.70;1.00;;;;;;5207058;28;20031;-83
2023/07/27 05:01:43;;;;;;;2.00;1.20;;;15.90;1.00;;;;;;5206971;28;20335;-84
2023/07/27 05:04:17;;;;;;;1.40;1.30;;;15.90;1.00;;;;;;5207307;28;20040;-84
2023/07/27 05:06:49;;;;;;;1.70;1.50;;;16.00;1.00;;;;;;5207028;28;20337;-83
2023/07/27 05:09:24;;;;;;;1.40;1.30;;;16.00;1.00;;;;;;5206979;28;20029;-83
2023/07/27 05:11:58;;;;;;;;;;;16.00;1.00;;;;;;5206808;28;20031;-84
2023/07/27 05:14:31;;;;;;;1.95;1.35;;;16.20;1.00;;;;;;5207015;28;19911;-84
2023/07/27 05:17:05;;;;;;;1.75;1.65;;;16.20;1.00;;;;;;5206560;28;20037;-84
2023/07/27 05:19:39;;;;;;;1.00;1.00;;;16.20;1.00;;;;;;5206886;28;20031;-85
2023/07/27 05:22:11;;;;;;;1.90;1.10;;;16.40;1.00;;;;;;5206537;28;20035;-83
2023/07/27 05:24:44;;;;;;;1.38;1.27;;;16.50;1.00;;;;;;5206213;28;20025;-84
2023/07/27 05:27:18;;;;;;;1.87;1.40;;;16.70;1.00;;;;;;5206582;28;20035;-85
2023/07/27 05:29:49;;;;;;;1.63;1.40;;;16.80;99.90;;;;;;5206167;28;20039;-84
2023/07/27 05:32:23;;;;;;;1.55;1.33;;;16.80;1.00;;;;;;5206527;28;20213;-83
2023/07/27 05:34:58;;;;;;;1.40;1.30;;;16.70;99.90;;;;;;5206629;28;20033;-87
2023/07/27 05:37:37;;;;;;;4.20;1.02;;;16.80;99.90;;;;;;5206423;28;20031;-84
2023/07/27 05:40:11;;;;;;;1.55;1.45;;;16.90;99.90;;;;;;5206028;28;20028;-84
2023/07/27 05:42:43;;;;;;;1.80;1.25;;;17.20;32.40;;;;;;5208700;28;20029;-84
2023/07/27 05:45:14;;;;;;;1.40;1.20;;;17.30;99.90;;;;;;5206025;28;20025;-85
2023/07/27 05:47:46;;;;;;;1.50;1.40;;;17.20;45.80;;;;;;5206228;28;20204;-84
2023/07/27 05:50:17;;;;;;;2.40;1.70;;;17.60;1.00;;;;;;5206554;28;20032;-84
2023/07/27 05:52:48;;;;;;;2.28;1.42;;;17.60;1.00;;;;;;5205803;28;20345;-84
2023/07/27 05:55:20;;;;;;;2.30;1.42;;;17.50;1.00;;;;;;5206087;28;20049;-83
2023/07/27 05:57:51;;;;;;;1.23;1.10;;;17.50;1.00;;;;;;5206041;28;20130;-84
2023/07/27 06:00:23;;;;;;;1.98;1.40;;;17.40;1.00;;;;;;5204360;28;20033;-84
2023/07/27 06:02:56;;;;;;;1.67;1.40;;;17.60;1.00;;;;;;5201272;28;20029;-87
2023/07/27 06:05:28;;;;;;;1.50;1.40;;;17.50;1.00;;;;;;5201537;28;20222;-84
2023/07/27 06:08:00;;;;;;;1.20;1.05;;;17.50;1.00;;;;;;5218625;28;20029;-84
2023/07/27 06:10:31;;;;;;;1.55;1.13;;;17.90;1.00;;;;;;5201534;28;20040;-84
2023/07/27 06:13:06;;;;;;;1.30;1.20;;;18.30;1.00;;;;;;5201374;28;20037;-85
2023/07/27 06:15:42;;;;;;;;;;;18.30;99.90;;;;;;5202493;28;20223;-84
2023/07/27 06:18:18;;;;;;;1.48;1.38;;;18.30;99.90;;;;;;5202127;28;19901;-84
2023/07/27 06:20:49;;;;;;;1.95;1.67;;;18.50;1.00;;;;;;5201944;28;20246;-84
2023/07/27 06:23:25;;;;;;;2.47;1.38;;;18.20;1.00;;;;;;5217125;28;20033;-83
2023/07/27 06:25:56;;;;;;;1.58;1.38;;;18.00;1.00;;;;;;5201685;28;20025;-86
2023/07/27 06:28:31;;;;;;;2.42;1.33;;;18.20;1.00;;;;;;5202876;28;20032;-84
2023/07/27 06:31:04;;;;;;;1.10;1.00;;;18.20;1.00;;;;;;5202308;28;20030;-83
2023/07/27 06:33:37;;;;;;;2.03;1.60;;;18.30;1.00;;;;;;5202101;28;20029;-84
2023/07/27 06:43:13;;;;;;;3.42;0.90;;;18.30;99.90;;;;;;5203566;23;20056;-70
2023/07/27 06:45:44;;;;;;;1.30;1.20;;;18.80;99.90;;;;;;5175062;28;20036;-69
2023/07/27 06:48:18;;;;;;;2.20;1.38;;;18.70;99.90;;;;;;5179066;28;20033;-69
2023/07/27 06:50:50;;;;;;;1.67;1.42;;;18.90;99.90;;;;;;5178478;28;20042;-71
2023/07/27 06:53:21;;;;;;;1.60;1.50;;;19.10;99.90;;;;;;5170237;28;20049;-70
2023/07/27 06:55:54;;;;;;;1.33;1.23;;;18.80;94.60;;;;;;5177013;28;20030;-70
2023/07/27 06:58:27;;;;;;;1.23;1.13;;;18.80;99.90;;;;;;5175074;28;20049;-70
2023/07/27 07:00:59;;;;;;;1.93;1.63;;;19.10;44.10;;;;;;5173529;28;20037;-71
2023/07/27 07:03:30;;;;;;;1.83;1.27;;;19.30;1.00;;;;;;5152448;28;20374;-71
2023/07/27 07:06:05;;;;;;;1.10;1.00;;;19.30;1.00;;;;;;5176259;28;20026;-70
2023/07/27 07:08:36;;;;;;;1.45;1.33;;;19.30;1.00;;;;;;5156737;28;20038;-71
2023/07/27 07:11:13;;;;;;;1.30;1.20;;;19.20;1.00;;;;;;5160682;28;20048;-71
2023/07/27 07:13:47;;;;;;;1.65;1.55;;;19.10;1.00;;;;;;5183007;28;20034;-69
2023/07/27 07:16:18;;;;;;;1.63;1.52;;;19.30;1.00;;;;;;5142639;28;20042;-69
2023/07/27 07:18:50;;;;;;;1.45;1.35;;;19.40;1.00;;;;;;5177343;28;20225;-69
2023/07/27 07:21:21;;;;;;;1.35;1.25;;;19.30;1.00;;;;;;5173868;28;20345;-70
2023/07/27 07:23:52;;;;;;;1.77;1.38;;;19.10;1.00;;;;;;5154561;28;20413;-69
2023/07/27 07:26:24;;;;;;;1.38;1.25;;;19.10;1.00;;;;;;5154268;28;20369;-69
2023/07/27 07:28:55;;;;;;;1.42;1.33;;;19.30;1.00;;;;;;5150082;28;20048;-69
2023/07/27 07:31:31;;;;;;;1.52;1.40;;;19.30;1.00;;;;;;5184564;28;20033;-69
2023/07/27 07:34:02;;;;;;;2.15;1.45;;;19.20;99.90;;;;;;5137738;28;20045;-69
2023/07/27 07:36:34;;;;;;;1.30;1.20;;;19.30;1.00;;;;;;5186201;28;20029;-69
2023/07/27 07:39:05;;;;;;;1.30;1.20;;;19.30;99.90;;;;;;5159063;28;20041;-70
2023/07/27 07:41:39;;;;;;;1.98;1.30;;;19.80;99.90;;;;;;5174404;28;20036;-69
2023/07/27 07:44:10;;;;;;;2.88;1.42;;;20.00;99.90;;;;;;5170198;28;20286;-68
2023/07/27 07:46:43;;;;;;;1.20;1.10;;;20.00;99.90;;;;;;5168780;28;20460;-69
2023/07/27 07:49:17;;;;;;;1.40;1.30;;;19.90;99.90;;;;;;5174575;28;20087;-69
2023/07/27 07:51:48;;;;;;;2.10;1.35;;;20.00;99.90;;;;;;5169058;28;20050;-70
2023/07/27 07:54:22;;;;;;;1.73;1.30;;;20.10;1.00;;;;;;5170866;28;20042;-69
2023/07/27 07:56:57;;;;;;;1.73;1.50;;;20.40;10.20;;;;;;5172924;28;20053;-70
2023/07/27 07:59:28;;;;;;;2.28;1.70;;;20.60;1.00;;;;;;5162526;28;20030;-70
2023/07/27 08:02:02;;;;;;;1.60;1.50;;;20.80;1.00;;;;;;5169911;28;20046;-70
2023/07/27 08:04:36;;;;;;;1.52;1.42;;;20.60;1.00;;;;;;5158134;28;20103;-70
2023/07/27 08:07:09;;;;;;;2.95;2.00;;;20.70;1.00;;;;;;5147773;28;20050;-70
2023/07/27 08:09:43;;;;;;;2.00;1.55;;;21.00;1.00;;;;;;5157533;28;20049;-70
2023/07/27 08:12:15;;;;;;;1.98;1.50;;;20.60;1.00;;;;;;5150297;28;20038;-70
2023/07/27 08:14:47;;;;;;;1.58;1.30;;;20.80;1.00;;;;;;5172889;28;20034;-71
2023/07/27 08:17:21;;;;;;;1.63;1.20;;;20.80;1.00;;;;;;5165090;28;20056;-70
2023/07/27 08:19:57;;;;;;;1.38;1.27;;;20.50;1.00;;;;;;5170557;28;20038;-70
2023/07/27 08:22:31;;;;;;;3.40;1.27;;;20.40;1.00;;;;;;5166340;28;20052;-69
2023/07/27 08:25:05;;;;;;;1.70;1.60;;;20.30;1.00;;;;;;5149810;28;20057;-70
2023/07/27 08:27:36;;;;;;;3.97;1.45;;;20.20;1.00;;;;;;5157083;28;20045;-69
2023/07/27 08:30:08;;;;;;;1.30;1.20;;;20.10;1.00;;;;;;5175401;28;20036;-69
2023/07/27 08:32:40;;;;;;;1.67;1.30;;;20.30;1.00;;;;;;5179314;28;20387;-69
2023/07/27 08:35:11;;;;;;;2.00;1.40;;;20.30;1.00;;;;;;5175728;28;20109;-70
2023/07/27 08:37:42;;;;;;;1.65;1.35;;;20.80;1.00;;;;;;5169365;28;20383;-69
2023/07/27 08:40:14;;;;;;;1.40;1.30;;;20.80;1.00;;;;;;5175670;28;20048;-69
2023/07/27 08:42:49;;;;;;;1.80;1.40;;;20.40;1.00;;;;;;5169307;28;20340;-71
2023/07/27 08:45:22;;;;;;;;;;;20.90;1.00;;;;;;5156469;28;20061;-70
2023/07/27 08:47:55;;;;;;;1.55;1.45;;;21.40;1.00;;;;;;5167869;28;19948;-71
2023/07/27 08:50:31;;;;;;;2.08;1.20;;;21.70;1.00;;;;;;5145640;28;20038;-71
2023/07/27 08:53:04;;;;;;;2.55;1.20;;;21.90;1.00;;;;;;5177198;28;20453;-70
2023/07/27 08:55:39;;;;;;;1.20;1.10;;;21.50;99.90;;;;;;5168807;28;20044;-71
2023/07/27 08:58:15;;;;;;;2.65;1.20;;;22.00;1.00;;;;;;5156441;28;20034;-70
2023/07/27 09:00:47;;;;;;;1.55;1.45;;;22.20;99.90;;;;;;5176090;28;20037;-70
2023/07/27 09:03:20;;;;;;;1.40;1.30;;;22.40;99.90;;;;;;5172873;28;20052;-72
2023/07/27 09:05:58;;;;;;;1.60;1.13;;;23.30;99.90;;;;;;5180001;28;20032;-71
2023/07/27 09:08:30;;;;;;;1.85;1.00;;;23.90;99.90;;;;;;5176495;28;20263;-71
2023/07/27 09:11:10;;;;;;;1.52;1.42;;;24.50;99.90;;;;;;5180941;28;20032;-70
2023/07/27 09:13:44;;;;;;;1.10;1.00;;;24.10;99.90;;;;;;5163084;28;20049;-72
2023/07/27 09:16:21;;;;;;;0.90;0.90;;;24.40;99.90;;;;;;5176006;28;20025;-72
2023/07/27 09:18:53;;;;;;;1.27;1.02;;;24.50;22.40;;;;;;5179088;28;20030;-72
2023/07/27 09:21:24;;;;;;;1.15;1.00;;;24.60;1.00;;;;;;5181212;28;20044;-70
2023/07/27 09:24:01;;;;;;;1.23;0.95;;;24.50;1.00;;;;;;5162180;28;20304;-71
2023/07/27 09:26:33;;;;;;;1.10;1.00;;;24.70;1.00;;;;;;5162159;28;20227;-71
2023/07/27 09:29:08;;;;;;;2.00;1.05;;;24.10;1.00;;;;;;5179643;28;20044;-70
2023/07/27 09:31:59;;;;;;;2.28;1.17;;;23.90;1.00;;;;;;5177211;28;20037;-72
2023/07/27 09:34:33;;;;;;;1.50;1.40;;;23.70;1.00;;;;;;5156860;28;20034;-72
2023/07/27 09:37:05;;;;;;;;;;;24.00;1.00;;;;;;5178589;28;20030;-71
2023/07/27 09:39:42;;;;;;;1.48;1.17;;;24.10;1.00;;;;;;5181102;28;20202;-72
2023/07/27 09:42:15;;;;;;;1.23;1.10;;;24.00;1.00;;;;;;5159191;28;20026;-70
2023/07/27 09:44:52;;;;;;;2.33;1.00;;;24.30;1.00;;;;;;5195716;28;20045;-72
2023/07/27 09:47:29;;;;;;;1.13;1.00;;;24.20;1.00;;;;;;5176026;28;20063;-71
2023/07/27 09:50:02;;;;;;;1.25;1.15;;;24.30;1.00;;;;;;5179933;28;20047;-70
2023/07/27 09:52:35;;;;;;;1.75;1.13;;;24.50;1.00;;;;;;5171634;28;20414;-73
2023/07/27 09:55:11;;;;;;;1.67;1.47;;;24.30;1.00;;;;;;5164645;28;20040;-70
2023/07/27 09:57:46;;;;;;;1.55;0.93;;;24.20;1.00;;;;;;5178110;28;20044;-70
2023/07/27 10:00:18;;;;;;;1.00;0.90;;;24.20;1.00;;;;;;5191664;28;20025;-70
2023/07/27 10:02:51;;;;;;;1.60;1.23;;;24.20;1.00;;;;;;5170135;28;20041;-73
2023/07/27 10:05:23;;;;;;;1.00;0.90;;;24.80;1.00;;;;;;5182479;28;20045;-70
2023/07/27 10:08:01;;;;;;;1.33;1.23;;;25.20;1.00;;;;;;5163658;28;20040;-69
2023/07/27 10:10:42;;;;;;;1.85;1.00;;;25.10;1.00;;;;;;5177041;28;20567;-70
2023/07/27 10:13:35;;;;;;;1.20;1.10;;;24.90;1.00;;;;;;5168749;28;20037;-69
2023/07/27 10:16:15;;;;;;;1.27;1.10;;;25.10;1.00;;;;;;5161132;28;20040;-72
2023/07/27 10:18:53;;;;;;;1.70;1.15;;;25.80;1.00;;;;;;5192065;28;20017;-71
2023/07/27 10:21:30;;;;;;;1.25;1.15;;;26.20;1.00;;;;;;5163009;28;20040;-72
2023/07/27 10:24:03;;;;;;;1.05;0.95;;;26.90;1.00;;;;;;5177753;28;20040;-71
2023/07/27 10:26:51;;;;;;;1.52;1.42;;;25.60;1.00;;;;;;5184344;28;20040;-71
2023/07/27 10:29:25;;;;;;;1.95;1.10;;;25.50;1.00;;;;;;5186317;28;20036;-71
2023/07/27 10:32:07;;;;;;;1.00;0.82;;;25.90;1.00;;;;;;5162003;28;20380;-72
2023/07/27 10:34:41;;;;;;;1.23;0.90;;;26.20;1.00;;;;;;5153089;28;20041;-72
2023/07/27 10:37:16;;;;;;;1.10;0.90;;;26.00;1.00;;;;;;5179525;28;20017;-70
2023/07/27 10:39:50;;;;;;;1.40;1.27;;;27.20;1.00;;;;;;5181726;28;20033;-70
2023/07/27 10:42:23;;;;;;;1.23;1.13;;;27.50;1.00;;;;;;5178542;28;20290;-71
2023/07/27 10:44:59;;;;;;;0.80;0.73;;;27.60;1.00;;;;;;5197950;28;20041;-70
2023/07/27 10:47:37;;;;;;;1.52;1.00;;;28.80;1.00;;;;;;5164372;28;20037;-71
2023/07/27 10:50:11;;;;;;;1.00;0.80;;;30.40;1.00;;;;;;5159826;28;20044;-71
2023/07/27 10:52:42;;;;;;;0.95;0.88;;;30.70;1.00;;;;;;5176781;28;20526;-70
2023/07/27 10:55:16;;;;;;;0.98;0.90;;;30.10;1.00;;;;;;5166782;28;20040;-70
2023/07/27 10:57:48;;;;;;;;;;;29.60;1.00;;;;;;5164482;28;20368;-71
2023/07/27 11:00:19;;;;;;;1.63;1.17;;;28.10;1.00;;;;;;5192297;28;19912;-70
2023/07/27 11:02:50;;;;;;;1.02;0.73;;;28.00;1.00;;;;;;5164246;28;20043;-71
2023/07/27 11:05:21;;;;;;;2.38;0.98;;;28.00;1.00;;;;;;5197444;28;20041;-72
2023/07/27 11:08:04;;;;;;;1.00;0.90;;;28.60;1.00;;;;;;5179805;28;20303;-73
2023/07/27 11:10:35;;;;;;;1.45;1.10;;;28.40;1.00;;;;;;5167863;28;20029;-70
2023/07/27 11:13:08;;;;;;;1.48;1.30;;;28.40;1.00;;;;;;5178809;28;20555;-72
2023/07/27 11:15:39;;;;;;;1.33;1.23;;;26.90;1.00;;;;;;5162875;28;20052;-72
2023/07/27 11:18:11;;;;;;;1.10;1.00;;;26.20;1.00;;;;;;5166605;28;20034;-72
2023/07/27 11:20:42;;;;;;;1.00;0.95;;;26.50;1.00;;;;;;5175377;28;20030;-71
2023/07/27 11:23:13;;;;;;;3.38;1.30;;;26.60;1.00;;;;;;5171027;28;20388;-71
2023/07/27 11:25:45;;;;;;;1.40;1.00;;;26.70;1.00;;;;;;5192058;28;20591;-72
2023/07/27 11:28:19;;;;;;;1.00;0.90;;;26.90;1.00;;;;;;5162623;28;20500;-72
2023/07/27 11:30:53;;;;;;;1.30;1.10;;;28.10;1.00;;;;;;5189908;28;20029;-71
2023/07/27 11:33:31;;;;;;;;;;;29.20;1.00;;;;;;5160872;28;20445;-70
2023/07/27 11:36:07;;;;;;;1.20;1.00;;;28.90;1.00;;;;;;5180620;28;19924;-72
2023/07/27 11:38:38;;;;;;;1.55;1.17;;;27.70;1.00;;;;;;5161581;28;20029;-72
2023/07/27 11:41:09;;;;;;;1.10;1.00;;;28.40;1.00;;;;;;5180660;28;20034;-72
2023/07/27 11:43:43;;;;;;;1.40;1.10;;;29.40;1.00;;;;;;5164842;28;20034;-75
2023/07/27 11:46:15;;;;;;;1.27;1.08;;;29.50;1.00;;;;;;5193821;28;20033;-71
2023/07/27 11:48:50;;;;;;;0.60;0.60;;;29.60;1.00;;;;;;5186116;28;20037;-72
2023/07/27 11:51:23;;;;;;;2.10;1.30;;;29.50;1.00;;;;;;5148972;28;20038;-73
2023/07/27 11:53:55;;;;;;;1.20;1.00;;;28.20;1.00;;;;;;5180958;28;20064;-73
2023/07/27 11:56:26;;;;;;;1.13;0.80;;;28.00;1.00;;;;;;5197847;28;20033;-72
2023/07/27 11:58:57;;;;;;;0.85;0.82;;;27.40;1.00;;;;;;5198245;28;20026;-72
2023/07/27 12:01:31;;;;;;;1.05;0.90;;;27.50;1.00;;;;;;5177028;28;20511;-72
2023/07/27 12:04:08;;;;;;;1.55;1.20;;;30.20;1.00;;;;;;5162374;28;20367;-73
2023/07/27 12:06:43;;;;;;;1.83;1.10;;;30.90;1.00;;;;;;5163620;28;20034;-73
2023/07/27 12:09:21;;;;;;;1.38;1.10;;;30.70;1.00;;;;;;5164484;28;20043;-73
2023/07/27 12:11:55;;;;;;;1.10;1.00;;;30.80;1.00;;;;;;5164436;28;20031;-72
2023/07/27 12:14:32;;;;;;;1.08;0.73;;;31.10;99.90;;;;;;5161888;28;20041;-74
2023/07/27 12:17:10;;;;;;;0.60;0.60;;;31.20;99.90;;;;;;5161388;28;20041;-74
2023/07/27 12:19:42;;;;;;;0.70;0.70;;;30.00;99.90;;;;;;5165436;28;20037;-73
2023/07/27 12:22:13;;;;;;;1.08;0.82;;;30.10;99.90;;;;;;5167248;28;20041;-71
2023/07/27 12:24:45;;;;;;;1.02;0.85;;;28.70;99.90;;;;;;5201945;28;20043;-71
2023/07/27 12:27:19;;;;;;;1.30;0.93;;;29.40;99.90;;;;;;5190321;28;20030;-71
2023/07/27 12:29:50;;;;;;;1.20;1.10;;;29.90;99.90;;;;;;5162809;28;20029;-72
2023/07/27 12:32:21;;;;;;;2.10;1.48;;;31.10;99.90;;;;;;5198518;28;20029;-70
2023/07/27 12:34:55;;;;;;;2.13;0.93;;;32.40;99.90;;;;;;5183716;28;20021;-73
2023/07/27 12:37:27;;;;;;;;;;;33.40;99.90;;;;;;5183982;28;20029;-72
2023/07/27 12:39:58;;;;;;;0.82;0.77;;;32.40;99.90;;;;;;5164556;28;19905;-73
2023/07/27 12:42:32;;;;;;;0.90;0.90;;;31.30;99.90;;;;;;5182156;28;20324;-71
2023/07/27 12:45:04;;;;;;;1.02;0.80;;;30.80;99.90;;;;;;5179605;28;20371;-71
2023/07/27 12:47:37;;;;;;;1.00;0.90;;;30.70;99.90;;;;;;5157258;28;20029;-71
2023/07/27 12:50:10;;;;;;;0.93;0.90;;;30.50;99.90;;;;;;5166406;28;20040;-74
2023/07/27 12:52:42;;;;;;;1.20;0.90;;;30.80;99.90;;;;;;5201622;28;20029;-72
2023/07/27 12:55:17;;;;;;;3.67;1.60;;;31.30;99.90;;;;;;5201471;28;20048;-72
2023/07/27 12:57:51;;;;;;;1.98;1.00;;;30.40;99.90;;;;;;5201262;28;20029;-73
2023/07/27 13:00:25;;;;;;;1.40;1.13;;;31.40;99.90;;;;;;5196448;28;20032;-72
2023/07/27 13:02:56;;;;;;;1.45;1.08;;;32.10;99.90;;;;;;5169445;28;20029;-72
2023/07/27 13:05:29;;;;;;;1.15;0.93;;;33.60;99.90;;;;;;5172970;28;20271;-71
2023/07/27 13:08:03;;;;;;;0.95;0.93;;;33.50;99.90;;;;;;5168213;28;20044;-71
2023/07/27 13:10:34;;;;;;;;;;;33.90;99.90;;;;;;5184708;28;20043;-73
2023/07/27 13:13:05;;;;;;;1.05;0.93;;;34.20;99.90;;;;;;5186112;28;19908;-72
2023/07/27 13:15:39;;;;;;;1.30;0.95;;;35.90;99.90;;;;;;5180667;28;20446;-73
2023/07/27 13:18:10;;;;;;;1.10;1.00;;;37.30;99.90;;;;;;5140573;28;20422;-72
2023/07/27 13:20:42;;;;;;;1.20;1.10;;;35.30;99.90;;;;;;5166951;28;20030;-73
2023/07/27 13:23:14;;;;;;;1.20;1.10;;;35.70;99.90;;;;;;5180277;28;20044;-75
2023/07/27 13:25:45;;;;;;;1.10;1.00;;;34.80;99.90;;;;;;5195121;28;20044;-73
2023/07/27 13:28:16;;;;;;;1.25;1.10;;;33.60;99.90;;;;;;5184674;28;20033;-72
2023/07/27 13:30:50;;;;;;;1.48;0.95;;;30.50;99.90;;;;;;5184440;28;20033;-72
2023/07/27 13:33:24;;;;;;;;;;;28.90;99.90;;;;;;5153095;28;20108;-72
2023/07/27 13:35:55;;;;;;;1.20;0.82;;;28.80;99.90;;;;;;5180013;28;19901;-71
2023/07/27 13:38:26;;;;;;;1.00;0.90;;;29.40;99.90;;;;;;5180617;28;20029;-72
2023/07/27 13:41:04;;;;;;;1.40;1.10;;;29.50;99.90;;;;;;5196110;28;20032;-72
2023/07/27 13:43:35;;;;;;;1.20;1.10;;;29.10;99.90;;;;;;5200776;28;20092;-72
2023/07/27 13:46:07;;;;;;;1.58;1.10;;;28.60;99.90;;;;;;5197888;28;20288;-74